sensor_id;sensor_type;location;lat;lon;timestamp;pressure;altitude;pressure_sealevel;temperature;humidity
7433;BME280;32233;49.500;7.764;2023-04-07T00:01:38;98424.13;;;5.76;100.00
7433;BME280;32233;49.500;7.764;2023-04-07T00:04:04;98421.06;;;5.64;100.00
7433;BME280;32233;49.500;7.764;2023-04-07T00:06:31;98417.22;;;5.75;100.00
7433;BME280;32233;49.500;7.764;2023-04-07T00:08:58;98419.13;;;5.89;100.00
7433;BME280;32233;49.500;7.764;2023-04-07T00:11:24;98415.41;;;5.84;100.00
7433;BME280;32233;49.500;7.764;2023-04-07T00:13:51;98418.50;;;5.79;100.00
7433;BME280;32233;49.500;7.764;2023-04-07T00:16:18;98414.59;;;5.75;100.00
7433;BME280;32233;49.500;7.764;2023-04-07T00:18:44;98419.03;;;5.75;100.00
7433;BME280;32233;49.500;7.764;2023-04-07T00:21:11;98406.84;;;5.51;100.00
7433;BME280;32233;49.500;7.764;2023-04-07T00:23:37;98404.81;;;5.69;100.00
7433;BME280;32233;49.500;7.764;2023-04-07T00:26:04;98400.72;;;5.66;100.00
7433;BME280;32233;49.500;7.764;2023-04-07T00:28:31;98389.06;;;5.69;100.00
7433;BME280;32233;49.500;7.764;2023-04-07T00:30:57;98390.41;;;5.65;100.00
7433;BME280;32233;49.500;7.764;2023-04-07T00:33:24;98391.81;;;5.44;100.00
7433;BME280;32233;49.500;7.764;2023-04-07T00:35:51;98392.28;;;5.48;100.00
7433;BME280;32233;49.500;7.764;2023-04-07T00:38:19;98386.72;;;5.51;100.00
7433;BME280;32233;49.500;7.764;2023-04-07T00:40:46;98383.78;;;5.38;100.00
7433;BME280;32233;49.500;7.764;2023-04-07T00:43:12;98384.75;;;5.45;100.00
7433;BME280;32233;49.500;7.764;2023-04-07T00:45:39;98373.84;;;5.64;100.00
7433;BME280;32233;49.500;7.764;2023-04-07T00:48:06;98372.56;;;5.60;100.00
7433;BME280;32233;49.500;7.764;2023-04-07T00:50:32;98375.84;;;5.54;100.00
7433;BME280;32233;49.500;7.764;2023-04-07T00:52:59;98367.47;;;5.19;100.00
7433;BME280;32233;49.500;7.764;2023-04-07T00:55:27;98369.09;;;5.29;100.00
7433;BME280;32233;49.500;7.764;2023-04-07T00:57:54;98359.75;;;5.26;100.00
7433;BME280;32233;49.500;7.764;2023-04-07T01:00:20;98353.75;;;5.09;100.00
7433;BME280;32233;49.500;7.764;2023-04-07T01:02:57;98355.91;;;4.89;100.00
7433;BME280;32233;49.500;7.764;2023-04-07T01:05:43;98357.19;;;5.02;100.00
7433;BME280;32233;49.500;7.764;2023-04-07T01:08:18;98352.28;;;5.15;100.00
7433;BME280;32233;49.500;7.764;2023-04-07T01:11:02;98348.88;;;5.06;100.00
7433;BME280;32233;49.500;7.764;2023-04-07T01:13:37;98339.53;;;5.04;100.00
7433;BME280;32233;49.500;7.764;2023-04-07T01:16:28;98338.06;;;5.01;100.00
7433;BME280;32233;49.500;7.764;2023-04-07T01:19:00;98332.91;;;4.60;100.00
7433;BME280;32233;49.500;7.764;2023-04-07T01:21:32;98345.50;;;4.48;100.00
7433;BME280;32233;49.500;7.764;2023-04-07T01:27:06;98339.31;;;4.41;100.00
7433;BME280;32233;49.500;7.764;2023-04-07T01:29:41;98334.56;;;4.45;100.00
7433;BME280;32233;49.500;7.764;2023-04-07T01:32:13;98340.78;;;4.44;100.00
7433;BME280;32233;49.500;7.764;2023-04-07T01:34:41;98343.34;;;4.68;100.00
7433;BME280;32233;49.500;7.764;2023-04-07T01:37:09;98330.41;;;4.83;100.00
7433;BME280;32233;49.500;7.764;2023-04-07T01:39:37;98334.16;;;4.81;100.00
7433;BME280;32233;49.500;7.764;2023-04-07T01:42:05;98332.72;;;4.86;100.00
7433;BME280;32233;49.500;7.764;2023-04-07T01:44:33;98323.69;;;4.89;100.00
7433;BME280;32233;49.500;7.764;2023-04-07T01:47:01;98322.75;;;4.74;100.00
7433;BME280;32233;49.500;7.764;2023-04-07T01:49:29;98323.09;;;4.54;100.00
7433;BME280;32233;49.500;7.764;2023-04-07T01:51:58;98323.59;;;4.58;100.00
7433;BME280;32233;49.500;7.764;2023-04-07T01:54:25;98331.75;;;4.63;100.00
7433;BME280;32233;49.500;7.764;2023-04-07T01:56:52;98323.22;;;4.69;100.00
7433;BME280;32233;49.500;7.764;2023-04-07T01:59:19;98328.16;;;4.64;100.00
7433;BME280;32233;49.500;7.764;2023-04-07T02:01:47;98326.69;;;4.78;100.00
7433;BME280;32233;49.500;7.764;2023-04-07T02:04:30;98328.94;;;4.72;100.00
7433;BME280;32233;49.500;7.764;2023-04-07T02:07:00;98316.88;;;4.63;100.00
7433;BME280;32233;49.500;7.764;2023-04-07T02:09:37;98313.47;;;4.38;100.00
7433;BME280;32233;49.500;7.764;2023-04-07T02:12:07;98320.03;;;4.26;100.00
7433;BME280;32233;49.500;7.764;2023-04-07T02:14:39;98313.97;;;4.09;100.00
7433;BME280;32233;49.500;7.764;2023-04-07T02:17:09;98312.66;;;4.05;100.00
7433;BME280;32233;49.500;7.764;2023-04-07T02:19:36;98310.03;;;4.30;100.00
7433;BME280;32233;49.500;7.764;2023-04-07T02:22:04;98309.06;;;4.14;100.00
7433;BME280;32233;49.500;7.764;2023-04-07T02:24:31;98309.88;;;4.07;100.00
7433;BME280;32233;49.500;7.764;2023-04-07T02:26:58;98318.38;;;4.01;100.00
7433;BME280;32233;49.500;7.764;2023-04-07T02:29:27;98313.97;;;4.09;100.00
7433;BME280;32233;49.500;7.764;2023-04-07T02:31:54;98311.50;;;4.08;100.00
7433;BME280;32233;49.500;7.764;2023-04-07T02:34:21;98305.94;;;4.03;100.00
7433;BME280;32233;49.500;7.764;2023-04-07T02:36:48;98312.66;;;4.05;100.00
7433;BME280;32233;49.500;7.764;2023-04-07T02:39:14;98308.25;;;4.22;100.00
7433;BME280;32233;49.500;7.764;2023-04-07T02:41:41;98305.44;;;4.32;100.00
7433;BME280;32233;49.500;7.764;2023-04-07T02:44:07;98305.63;;;4.22;100.00
7433;BME280;32233;49.500;7.764;2023-04-07T02:46:34;98310.19;;;4.04;100.00
7433;BME280;32233;49.500;7.764;2023-04-07T02:49:01;98301.88;;;3.92;100.00
7433;BME280;32233;49.500;7.764;2023-04-07T02:51:28;98300.38;;;3.81;100.00
7433;BME280;32233;49.500;7.764;2023-04-07T02:53:54;98300.53;;;3.71;100.00
7433;BME280;32233;49.500;7.764;2023-04-07T02:56:21;98307.53;;;3.71;100.00
7433;BME280;32233;49.500;7.764;2023-04-07T02:58:48;98303.97;;;3.80;100.00
7433;BME280;32233;49.500;7.764;2023-04-07T03:01:15;98312.13;;;3.77;100.00
7433;BME280;32233;49.500;7.764;2023-04-07T03:03:42;98313.78;;;3.78;100.00
7433;BME280;32233;49.500;7.764;2023-04-07T03:06:14;98315.91;;;3.91;100.00
7433;BME280;32233;49.500;7.764;2023-04-07T03:09:05;98312.97;;;4.10;100.00
7433;BME280;32233;49.500;7.764;2023-04-07T03:11:32;98297.78;;;4.22;100.00
7433;BME280;32233;49.500;7.764;2023-04-07T03:13:59;98309.72;;;3.92;100.00
7433;BME280;32233;49.500;7.764;2023-04-07T03:16:28;98309.88;;;4.15;100.00
7433;BME280;32233;49.500;7.764;2023-04-07T03:19:15;98302.34;;;4.12;100.00
7433;BME280;32233;49.500;7.764;2023-04-07T03:21:45;98309.56;;;4.26;100.00
7433;BME280;32233;49.500;7.764;2023-04-07T03:24:11;98303.34;;;4.11;100.00
7433;BME280;32233;49.500;7.764;2023-04-07T03:26:38;98302.19;;;4.05;100.00
7433;BME280;32233;49.500;7.764;2023-04-07T03:29:12;98297.47;;;4.17;100.00
7433;BME280;32233;49.500;7.764;2023-04-07T03:31:40;98294.84;;;4.33;100.00
7433;BME280;32233;49.500;7.764;2023-04-07T03:34:07;98300.72;;;4.27;100.00
7433;BME280;32233;49.500;7.764;2023-04-07T03:36:33;98292.72;;;4.20;100.00
7433;BME280;32233;49.500;7.764;2023-04-07T03:39:03;98295.16;;;3.81;100.00
7433;BME280;32233;49.500;7.764;2023-04-07T03:41:29;98275.72;;;3.76;100.00
7433;BME280;32233;49.500;7.764;2023-04-07T03:43:56;98283.84;;;3.56;100.00
7433;BME280;32233;49.500;7.764;2023-04-07T03:46:23;98278.91;;;3.45;100.00
7433;BME280;32233;49.500;7.764;2023-04-07T03:48:52;98281.94;;;3.16;100.00
7433;BME280;32233;49.500;7.764;2023-04-07T03:51:20;98278.72;;;2.88;100.00
7433;BME280;32233;49.500;7.764;2023-04-07T03:53:52;98278.75;;;2.96;100.00
7433;BME280;32233;49.500;7.764;2023-04-07T03:56:36;98286.03;;;2.84;100.00
7433;BME280;32233;49.500;7.764;2023-04-07T03:59:04;98289.81;;;2.82;100.00
7433;BME280;32233;49.500;7.764;2023-04-07T04:01:35;98283.28;;;2.86;100.00
7433;BME280;32233;49.500;7.764;2023-04-07T04:04:09;98294.31;;;2.71;100.00
7433;BME280;32233;49.500;7.764;2023-04-07T04:06:36;98288.88;;;2.65;100.00
7433;BME280;32233;49.500;7.764;2023-04-07T04:09:12;98288.69;;;2.58;100.00
7433;BME280;32233;49.500;7.764;2023-04-07T04:11:43;98287.00;;;2.49;100.00
7433;BME280;32233;49.500;7.764;2023-04-07T04:14:10;98293.66;;;2.43;100.00
7433;BME280;32233;49.500;7.764;2023-04-07T04:16:38;98293.81;;;2.42;100.00
7433;BME280;32233;49.500;7.764;2023-04-07T04:19:15;98290.78;;;2.29;100.00
7433;BME280;32233;49.500;7.764;2023-04-07T04:21:41;98295.28;;;2.44;100.00
7433;BME280;32233;49.500;7.764;2023-04-07T04:24:08;98304.81;;;2.54;100.00
7433;BME280;32233;49.500;7.764;2023-04-07T04:26:35;98301.44;;;2.61;100.00
7433;BME280;32233;49.500;7.764;2023-04-07T04:29:08;98308.59;;;2.59;100.00
7433;BME280;32233;49.500;7.764;2023-04-07T04:31:35;98306.78;;;2.60;100.00
7433;BME280;32233;49.500;7.764;2023-04-07T04:34:02;98302.50;;;2.51;100.00
7433;BME280;32233;49.500;7.764;2023-04-07T04:36:29;98307.97;;;2.39;100.00
7433;BME280;32233;49.500;7.764;2023-04-07T04:39:01;98312.19;;;2.40;100.00
7433;BME280;32233;49.500;7.764;2023-04-07T04:41:28;98316.16;;;2.44;100.00
7433;BME280;32233;49.500;7.764;2023-04-07T04:43:56;98320.94;;;2.49;100.00
7433;BME280;32233;49.500;7.764;2023-04-07T04:46:24;98312.69;;;2.62;100.00
7433;BME280;32233;49.500;7.764;2023-04-07T04:48:52;98316.59;;;2.58;100.00
7433;BME280;32233;49.500;7.764;2023-04-07T04:51:21;98308.16;;;2.72;100.00
7433;BME280;32233;49.500;7.764;2023-04-07T04:53:52;98316.59;;;2.92;100.00
7433;BME280;32233;49.500;7.764;2023-04-07T04:56:22;98321.56;;;2.77;100.00
7433;BME280;32233;49.500;7.764;2023-04-07T04:58:49;98315.00;;;2.73;100.00
7433;BME280;32233;49.500;7.764;2023-04-07T05:01:29;98310.78;;;2.72;100.00
7433;BME280;32233;49.500;7.764;2023-04-07T05:04:06;98313.38;;;2.72;100.00
7433;BME280;32233;49.500;7.764;2023-04-07T05:06:35;98316.94;;;2.97;100.00
7433;BME280;32233;49.500;7.764;2023-04-07T05:09:07;98315.75;;;3.26;100.00
7433;BME280;32233;49.500;7.764;2023-04-07T05:11:40;98318.03;;;3.20;100.00
7433;BME280;32233;49.500;7.764;2023-04-07T05:14:08;98312.56;;;3.40;100.00
7433;BME280;32233;49.500;7.764;2023-04-07T05:16:38;98311.22;;;3.36;100.00
7433;BME280;32233;49.500;7.764;2023-04-07T05:19:05;98310.47;;;3.52;100.00
7433;BME280;32233;49.500;7.764;2023-04-07T05:21:32;98312.44;;;3.58;100.00
7433;BME280;32233;49.500;7.764;2023-04-07T05:24:02;98306.22;;;3.59;100.00
7433;BME280;32233;49.500;7.764;2023-04-07T05:26:30;98296.94;;;3.64;100.00
7433;BME280;32233;49.500;7.764;2023-04-07T05:28:58;98295.44;;;3.62;100.00
7433;BME280;32233;49.500;7.764;2023-04-07T05:31:25;98298.09;;;3.78;100.00
7433;BME280;32233;49.500;7.764;2023-04-07T05:33:55;98296.13;;;3.72;100.00
7433;BME280;32233;49.500;7.764;2023-04-07T05:36:25;98295.13;;;3.65;100.00
7433;BME280;32233;49.500;7.764;2023-04-07T05:38:55;98291.84;;;3.63;100.00
7433;BME280;32233;49.500;7.764;2023-04-07T05:41:22;98299.38;;;3.74;100.00
7433;BME280;32233;49.500;7.764;2023-04-07T05:43:48;98300.56;;;4.04;100.00
7433;BME280;32233;49.500;7.764;2023-04-07T05:46:16;98299.59;;;4.13;100.00
7433;BME280;32233;49.500;7.764;2023-04-07T05:48:51;98303.50;;;4.09;100.00
7433;BME280;32233;49.500;7.764;2023-04-07T05:51:19;98296.66;;;4.16;100.00
7433;BME280;32233;49.500;7.764;2023-04-07T05:53:45;98298.28;;;4.26;100.00
7433;BME280;32233;49.500;7.764;2023-04-07T05:56:12;98302.34;;;4.28;100.00
7433;BME280;32233;49.500;7.764;2023-04-07T05:58:44;98307.91;;;4.33;100.00
7433;BME280;32233;49.500;7.764;2023-04-07T06:01:12;98307.91;;;4.41;100.00
7433;BME280;32233;49.500;7.764;2023-04-07T06:03:38;98314.78;;;4.42;100.00
7433;BME280;32233;49.500;7.764;2023-04-07T06:06:14;98316.72;;;4.32;100.00
7433;BME280;32233;49.500;7.764;2023-04-07T06:08:40;98318.53;;;4.48;100.00
7433;BME280;32233;49.500;7.764;2023-04-07T06:11:13;98313.16;;;4.17;100.00
7433;BME280;32233;49.500;7.764;2023-04-07T06:13:46;98318.03;;;4.28;100.00
7433;BME280;32233;49.500;7.764;2023-04-07T06:16:13;98317.03;;;4.62;100.00
7433;BME280;32233;49.500;7.764;2023-04-07T06:18:41;98315.09;;;4.47;100.00
7433;BME280;32233;49.500;7.764;2023-04-07T06:21:07;98326.19;;;4.66;100.00
7433;BME280;32233;49.500;7.764;2023-04-07T06:23:34;98326.88;;;4.52;100.00
7433;BME280;32233;49.500;7.764;2023-04-07T06:26:04;98329.31;;;4.61;100.00
7433;BME280;32233;49.500;7.764;2023-04-07T06:28:31;98333.66;;;4.93;100.00
7433;BME280;32233;49.500;7.764;2023-04-07T06:30:58;98338.88;;;5.02;100.00
7433;BME280;32233;49.500;7.764;2023-04-07T06:33:25;98340.88;;;4.83;100.00
7433;BME280;32233;49.500;7.764;2023-04-07T06:35:55;98336.00;;;4.64;100.00
7433;BME280;32233;49.500;7.764;2023-04-07T06:38:22;98340.25;;;4.65;100.00
7433;BME280;32233;49.500;7.764;2023-04-07T06:40:48;98335.13;;;4.96;100.00
7433;BME280;32233;49.500;7.764;2023-04-07T06:43:15;98338.53;;;5.05;100.00
7433;BME280;32233;49.500;7.764;2023-04-07T06:46:01;98336.31;;;5.33;100.00
7433;BME280;32233;49.500;7.764;2023-04-07T06:48:28;98332.56;;;5.27;100.00
7433;BME280;32233;49.500;7.764;2023-04-07T06:50:54;98334.09;;;5.53;100.00
7433;BME280;32233;49.500;7.764;2023-04-07T06:53:21;98335.06;;;5.83;100.00
7433;BME280;32233;49.500;7.764;2023-04-07T06:55:47;98334.38;;;5.89;100.00
7433;BME280;32233;49.500;7.764;2023-04-07T06:58:14;98325.81;;;5.95;100.00
7433;BME280;32233;49.500;7.764;2023-04-07T07:00:40;98323.16;;;6.03;100.00
7433;BME280;32233;49.500;7.764;2023-04-07T07:03:07;98328.09;;;5.98;100.00
7433;BME280;32233;49.500;7.764;2023-04-07T07:05:34;98327.91;;;6.00;100.00
7433;BME280;32233;49.500;7.764;2023-04-07T07:08:00;98326.66;;;6.18;100.00
7433;BME280;32233;49.500;7.764;2023-04-07T07:10:27;98327.09;;;6.60;100.00
7433;BME280;32233;49.500;7.764;2023-04-07T07:12:53;98328.88;;;6.82;100.00
7433;BME280;32233;49.500;7.764;2023-04-07T07:15:20;98338.28;;;6.91;100.00
7433;BME280;32233;49.500;7.764;2023-04-07T07:17:46;98342.28;;;6.87;100.00
7433;BME280;32233;49.500;7.764;2023-04-07T07:20:13;98343.47;;;6.47;100.00
7433;BME280;32233;49.500;7.764;2023-04-07T07:22:40;98337.00;;;6.58;100.00
7433;BME280;32233;49.500;7.764;2023-04-07T07:25:06;98339.84;;;6.86;100.00
7433;BME280;32233;49.500;7.764;2023-04-07T07:27:33;98341.13;;;6.90;100.00
7433;BME280;32233;49.500;7.764;2023-04-07T07:30:00;98335.94;;;6.82;100.00
7433;BME280;32233;49.500;7.764;2023-04-07T07:32:26;98338.56;;;7.11;100.00
7433;BME280;32233;49.500;7.764;2023-04-07T07:34:53;98340.25;;;7.63;100.00
7433;BME280;32233;49.500;7.764;2023-04-07T07:37:19;98344.22;;;7.95;100.00
7433;BME280;32233;49.500;7.764;2023-04-07T07:39:46;98342.22;;;8.19;100.00
7433;BME280;32233;49.500;7.764;2023-04-07T07:42:13;98345.91;;;8.03;100.00
7433;BME280;32233;49.500;7.764;2023-04-07T07:44:40;98345.78;;;8.11;100.00
7433;BME280;32233;49.500;7.764;2023-04-07T07:47:07;98345.84;;;8.61;96.83
7433;BME280;32233;49.500;7.764;2023-04-07T07:49:33;98351.84;;;8.76;97.31
7433;BME280;32233;49.500;7.764;2023-04-07T07:52:00;98352.59;;;9.87;92.15
7433;BME280;32233;49.500;7.764;2023-04-07T07:54:27;98359.66;;;10.55;85.69
7433;BME280;32233;49.500;7.764;2023-04-07T07:56:54;98344.56;;;11.08;84.44
7433;BME280;32233;49.500;7.764;2023-04-07T07:59:20;98352.31;;;10.97;83.02
7433;BME280;32233;49.500;7.764;2023-04-07T08:01:47;98351.19;;;13.02;72.28
7433;BME280;32233;49.500;7.764;2023-04-07T08:04:14;98349.19;;;12.98;71.08
7433;BME280;32233;49.500;7.764;2023-04-07T08:06:41;98349.03;;;13.54;68.27
7433;BME280;32233;49.500;7.764;2023-04-07T08:09:08;98351.47;;;12.69;69.06
7433;BME280;32233;49.500;7.764;2023-04-07T08:11:34;98346.16;;;11.74;75.14
7433;BME280;32233;49.500;7.764;2023-04-07T08:14:01;98361.34;;;11.47;75.24
7433;BME280;32233;49.500;7.764;2023-04-07T08:16:27;98354.34;;;10.81;81.54
7433;BME280;32233;49.500;7.764;2023-04-07T08:18:54;98350.13;;;10.54;81.95
7433;BME280;32233;49.500;7.764;2023-04-07T08:21:20;98361.56;;;10.00;85.84
7433;BME280;32233;49.500;7.764;2023-04-07T08:23:47;98363.59;;;9.98;87.17
7433;BME280;32233;49.500;7.764;2023-04-07T08:26:14;98362.06;;;9.55;90.88
7433;BME280;32233;49.500;7.764;2023-04-07T08:28:40;98372.88;;;9.74;89.95
7433;BME280;32233;49.500;7.764;2023-04-07T08:31:07;98374.06;;;9.64;90.40
7433;BME280;32233;49.500;7.764;2023-04-07T08:33:33;98381.25;;;9.42;91.09
7433;BME280;32233;49.500;7.764;2023-04-07T08:36:00;98381.88;;;9.45;90.70
7433;BME280;32233;49.500;7.764;2023-04-07T08:38:26;98380.66;;;9.40;92.62
7433;BME280;32233;49.500;7.764;2023-04-07T08:41:01;98383.50;;;9.39;91.10
7433;BME280;32233;49.500;7.764;2023-04-07T08:43:29;98387.97;;;9.45;90.31
7433;BME280;32233;49.500;7.764;2023-04-07T08:45:56;98385.59;;;9.57;90.77
7433;BME280;32233;49.500;7.764;2023-04-07T08:48:23;98389.63;;;9.53;89.96
7433;BME280;32233;49.500;7.764;2023-04-07T08:50:52;98393.28;;;9.52;89.74
7433;BME280;32233;49.500;7.764;2023-04-07T08:53:23;98391.47;;;9.52;91.97
7433;BME280;32233;49.500;7.764;2023-04-07T08:55:55;98394.31;;;9.57;91.19
7433;BME280;32233;49.500;7.764;2023-04-07T08:58:22;98393.31;;;9.58;91.16
7433;BME280;32233;49.500;7.764;2023-04-07T09:00:49;98391.03;;;9.49;91.13
7433;BME280;32233;49.500;7.764;2023-04-07T09:03:16;98401.75;;;9.40;95.02
7433;BME280;32233;49.500;7.764;2023-04-07T09:05:44;98398.09;;;9.41;93.47
7433;BME280;32233;49.500;7.764;2023-04-07T09:08:11;98406.41;;;9.38;96.71
7433;BME280;32233;49.500;7.764;2023-04-07T09:10:38;98401.25;;;9.24;96.89
7433;BME280;32233;49.500;7.764;2023-04-07T09:13:05;98411.66;;;9.04;99.66
7433;BME280;32233;49.500;7.764;2023-04-07T09:15:31;98400.81;;;8.92;100.00
7433;BME280;32233;49.500;7.764;2023-04-07T09:17:58;98401.19;;;9.10;100.00
7433;BME280;32233;49.500;7.764;2023-04-07T09:20:25;98398.81;;;8.94;100.00
7433;BME280;32233;49.500;7.764;2023-04-07T09:22:51;98415.19;;;9.17;100.00
7433;BME280;32233;49.500;7.764;2023-04-07T09:25:22;98407.94;;;9.26;100.00
7433;BME280;32233;49.500;7.764;2023-04-07T09:27:58;98410.88;;;9.10;100.00
7433;BME280;32233;49.500;7.764;2023-04-07T09:30:26;98413.66;;;9.30;100.00
7433;BME280;32233;49.500;7.764;2023-04-07T09:32:53;98420.97;;;9.34;100.00
7433;BME280;32233;49.500;7.764;2023-04-07T09:35:19;98416.56;;;9.41;100.00
7433;BME280;32233;49.500;7.764;2023-04-07T09:40:32;98423.84;;;9.05;100.00
7433;BME280;32233;49.500;7.764;2023-04-07T09:42:59;98427.00;;;8.93;100.00
7433;BME280;32233;49.500;7.764;2023-04-07T09:45:26;98430.53;;;8.79;100.00
7433;BME280;32233;49.500;7.764;2023-04-07T09:48:08;98423.84;;;8.55;100.00
7433;BME280;32233;49.500;7.764;2023-04-07T09:50:43;98429.03;;;8.49;100.00
7433;BME280;32233;49.500;7.764;2023-04-07T09:53:14;98428.53;;;8.38;100.00
7433;BME280;32233;49.500;7.764;2023-04-07T09:55:42;98424.31;;;8.44;100.00
7433;BME280;32233;49.500;7.764;2023-04-07T09:58:12;98421.09;;;8.42;100.00
7433;BME280;32233;49.500;7.764;2023-04-07T10:00:42;98428.50;;;8.53;100.00
7433;BME280;32233;49.500;7.764;2023-04-07T10:03:09;98430.84;;;8.48;100.00
7433;BME280;32233;49.500;7.764;2023-04-07T10:05:37;98418.00;;;8.60;100.00
7433;BME280;32233;49.500;7.764;2023-04-07T10:08:05;98430.16;;;8.82;100.00
7433;BME280;32233;49.500;7.764;2023-04-07T10:10:32;98423.53;;;8.93;100.00
7433;BME280;32233;49.500;7.764;2023-04-07T10:13:03;98425.56;;;9.19;100.00
7433;BME280;32233;49.500;7.764;2023-04-07T10:15:30;98425.94;;;9.16;100.00
7433;BME280;32233;49.500;7.764;2023-04-07T10:17:57;98423.38;;;9.29;100.00
7433;BME280;32233;49.500;7.764;2023-04-07T10:20:25;98426.38;;;9.20;100.00
7433;BME280;32233;49.500;7.764;2023-04-07T10:22:54;98429.69;;;9.28;100.00
7433;BME280;32233;49.500;7.764;2023-04-07T10:25:23;98431.50;;;9.28;100.00
7433;BME280;32233;49.500;7.764;2023-04-07T10:27:55;98433.44;;;9.12;100.00
7433;BME280;32233;49.500;7.764;2023-04-07T10:30:27;98432.81;;;9.10;100.00
7433;BME280;32233;49.500;7.764;2023-04-07T10:32:54;98443.16;;;8.62;100.00
7433;BME280;32233;49.500;7.764;2023-04-07T10:35:21;98436.81;;;8.78;100.00
7433;BME280;32233;49.500;7.764;2023-04-07T10:40:35;98440.72;;;8.82;100.00
7433;BME280;32233;49.500;7.764;2023-04-07T10:43:03;98442.53;;;8.82;100.00
7433;BME280;32233;49.500;7.764;2023-04-07T10:48:16;98450.47;;;8.88;100.00
7433;BME280;32233;49.500;7.764;2023-04-07T10:53:33;98450.16;;;8.77;100.00
7433;BME280;32233;49.500;7.764;2023-04-07T10:56:00;98445.91;;;8.76;100.00
7433;BME280;32233;49.500;7.764;2023-04-07T10:58:27;98443.84;;;8.71;100.00
7433;BME280;32233;49.500;7.764;2023-04-07T11:03:24;98446.25;;;8.66;100.00
7433;BME280;32233;49.500;7.764;2023-04-07T11:05:51;98446.72;;;8.76;100.00
7433;BME280;32233;49.500;7.764;2023-04-07T11:08:43;98445.44;;;8.93;100.00
7433;BME280;32233;49.500;7.764;2023-04-07T11:11:15;98449.47;;;8.89;100.00
7433;BME280;32233;49.500;7.764;2023-04-07T11:13:42;98453.69;;;8.84;100.00
7433;BME280;32233;49.500;7.764;2023-04-07T11:16:09;98450.72;;;8.93;100.00
7433;BME280;32233;49.500;7.764;2023-04-07T11:18:37;98453.47;;;8.85;100.00
7433;BME280;32233;49.500;7.764;2023-04-07T11:21:05;98458.78;;;9.13;100.00
7433;BME280;32233;49.500;7.764;2023-04-07T11:23:42;98451.53;;;9.22;100.00
7433;BME280;32233;49.500;7.764;2023-04-07T11:26:11;98457.72;;;9.08;100.00
7433;BME280;32233;49.500;7.764;2023-04-07T11:28:49;98455.91;;;9.08;100.00
7433;BME280;32233;49.500;7.764;2023-04-07T11:31:30;98458.75;;;8.85;100.00
7433;BME280;32233;49.500;7.764;2023-04-07T11:36:29;98461.59;;;8.84;100.00
7433;BME280;32233;49.500;7.764;2023-04-07T11:38:56;98462.66;;;8.68;100.00
7433;BME280;32233;49.500;7.764;2023-04-07T11:41:24;98466.09;;;8.68;100.00
7433;BME280;32233;49.500;7.764;2023-04-07T11:46:31;98467.97;;;8.96;100.00
7433;BME280;32233;49.500;7.764;2023-04-07T11:49:08;98460.00;;;8.89;100.00
7433;BME280;32233;49.500;7.764;2023-04-07T11:51:35;98471.53;;;8.82;100.00
7433;BME280;32233;49.500;7.764;2023-04-07T11:54:01;98461.03;;;8.67;100.00
7433;BME280;32233;49.500;7.764;2023-04-07T11:56:28;98475.09;;;8.74;100.00
7433;BME280;32233;49.500;7.764;2023-04-07T11:58:55;98472.63;;;8.73;100.00
7433;BME280;32233;49.500;7.764;2023-04-07T12:01:22;98476.72;;;8.54;100.00
7433;BME280;32233;49.500;7.764;2023-04-07T12:04:00;98478.78;;;8.22;100.00
7433;BME280;32233;49.500;7.764;2023-04-07T12:06:32;98478.78;;;8.22;100.00
7433;BME280;32233;49.500;7.764;2023-04-07T12:09:08;98480.75;;;8.20;100.00
7433;BME280;32233;49.500;7.764;2023-04-07T12:11:35;98482.75;;;8.33;100.00
7433;BME280;32233;49.500;7.764;2023-04-07T12:14:04;98481.41;;;8.22;100.00
7433;BME280;32233;49.500;7.764;2023-04-07T12:16:36;98481.31;;;8.15;100.00
7433;BME280;32233;49.500;7.764;2023-04-07T12:19:03;98481.03;;;8.40;100.00
7433;BME280;32233;49.500;7.764;2023-04-07T12:21:30;98487.88;;;8.77;100.00
7433;BME280;32233;49.500;7.764;2023-04-07T12:23:56;98483.56;;;8.91;100.00
7433;BME280;32233;49.500;7.764;2023-04-07T12:26:23;98483.34;;;8.92;100.00
7433;BME280;32233;49.500;7.764;2023-04-07T12:28:50;98488.72;;;9.27;100.00
7433;BME280;32233;49.500;7.764;2023-04-07T12:31:17;98478.09;;;9.49;100.00
7433;BME280;32233;49.500;7.764;2023-04-07T12:33:43;98492.47;;;9.74;99.52
7433;BME280;32233;49.500;7.764;2023-04-07T12:36:10;98483.56;;;9.82;100.00
7433;BME280;32233;49.500;7.764;2023-04-07T12:38:37;98492.78;;;9.99;99.52
7433;BME280;32233;49.500;7.764;2023-04-07T12:41:03;98482.00;;;10.29;100.00
7433;BME280;32233;49.500;7.764;2023-04-07T12:43:30;98485.03;;;10.26;98.20
7433;BME280;32233;49.500;7.764;2023-04-07T12:45:57;98490.41;;;10.04;96.43
7433;BME280;32233;49.500;7.764;2023-04-07T12:48:23;98487.94;;;10.03;97.33
7433;BME280;32233;49.500;7.764;2023-04-07T12:50:52;98487.34;;;10.01;96.67
7433;BME280;32233;49.500;7.764;2023-04-07T12:53:18;98490.25;;;10.19;98.52
7433;BME280;32233;49.500;7.764;2023-04-07T12:55:46;98492.31;;;9.82;100.00
7433;BME280;32233;49.500;7.764;2023-04-07T12:58:16;98485.38;;;10.23;100.00
7433;BME280;32233;49.500;7.764;2023-04-07T13:00:48;98486.84;;;10.32;96.12
7433;BME280;32233;49.500;7.764;2023-04-07T13:03:14;98494.25;;;10.56;97.93
7433;BME280;32233;49.500;7.764;2023-04-07T13:05:41;98495.09;;;10.77;91.74
7433;BME280;32233;49.500;7.764;2023-04-07T13:08:08;98491.63;;;10.76;95.01
7433;BME280;32233;49.500;7.764;2023-04-07T13:10:35;98485.34;;;10.77;92.05
7433;BME280;32233;49.500;7.764;2023-04-07T13:13:01;98487.19;;;10.90;91.05
7433;BME280;32233;49.500;7.764;2023-04-07T13:15:28;98496.53;;;10.79;90.81
7433;BME280;32233;49.500;7.764;2023-04-07T13:17:54;98492.88;;;10.87;88.63
7433;BME280;32233;49.500;7.764;2023-04-07T13:20:21;98494.81;;;10.38;90.44
7433;BME280;32233;49.500;7.764;2023-04-07T13:22:48;98496.69;;;10.51;90.20
7433;BME280;32233;49.500;7.764;2023-04-07T13:25:31;98502.34;;;10.41;91.95
7433;BME280;32233;49.500;7.764;2023-04-07T13:27:57;98502.53;;;10.40;90.11
7433;BME280;32233;49.500;7.764;2023-04-07T13:30:25;98494.44;;;10.41;90.67
7433;BME280;32233;49.500;7.764;2023-04-07T13:32:51;98496.53;;;10.18;92.67
7433;BME280;32233;49.500;7.764;2023-04-07T13:35:18;98488.59;;;10.11;93.82
7433;BME280;32233;49.500;7.764;2023-04-07T13:37:45;98494.00;;;10.45;91.31
7433;BME280;32233;49.500;7.764;2023-04-07T13:40:11;98491.41;;;10.58;93.26
7433;BME280;32233;49.500;7.764;2023-04-07T13:42:38;98488.19;;;10.14;92.59